Time;durP1;ratioP1;P1;durP2;ratioP2;P2;SDS_P1;SDS_P2;PMS_P1;PMS_P2;Temp;Humidity;BMP_temperature;BMP_pressure;BME280_temperature;BME280_humidity;BME280_pressure;Samples;Min_cycle;Max_cycle;Signal;HPM_P1;HPM_P2
2022/05/01 00:01:19;;;;;;;19.00;15.67;;;10.30;99.90;;;;;;4930612;29;20250;-30
2022/05/01 00:03:45;;;;;;;16.80;14.43;;;10.30;99.90;;;;;;4914575;29;20195;-31
2022/05/01 00:06:12;;;;;;;16.00;14.10;;;10.20;99.90;;;;;;4914664;29;20194;-31
2022/05/01 00:08:40;;;;;;;17.90;14.67;;;10.30;99.90;;;;;;4914200;29;20222;-30
2022/05/01 00:11:08;;;;;;;16.20;14.50;;;10.30;99.90;;;;;;4914381;29;20222;-31
2022/05/01 00:13:35;;;;;;;17.90;14.57;;;10.30;99.90;;;;;;4914427;29;20193;-31
2022/05/01 00:16:01;;;;;;;16.63;14.73;;;10.30;99.90;;;;;;4914495;29;20200;-31
2022/05/01 00:18:27;;;;;;;16.80;15.00;;;10.30;99.90;;;;;;4898643;29;20234;-31
2022/05/01 00:20:53;;;;;;;19.20;14.60;;;10.30;99.90;;;;;;4914147;29;20187;-31
2022/05/01 00:23:19;;;;;;;16.80;14.27;;;10.30;99.90;;;;;;4913896;29;20191;-31
2022/05/01 00:25:45;;;;;;;19.40;15.10;;;10.20;99.90;;;;;;4914339;29;20181;-31
2022/05/01 00:28:13;;;;;;;15.87;14.00;;;10.20;99.90;;;;;;4915139;29;20187;-30
2022/05/01 00:30:39;;;;;;;18.63;15.10;;;10.20;99.90;;;;;;4913755;29;20321;-31
2022/05/01 00:38:35;;;;;;;16.13;14.10;;;10.20;99.90;;;;;;4915386;29;20341;-31
2022/05/01 00:41:04;;;;;;;17.73;13.83;;;10.20;99.90;;;;;;4929621;29;20190;-29
2022/05/01 00:43:31;;;;;;;15.63;13.93;;;10.20;99.90;;;;;;4914604;29;20277;-30
2022/05/01 00:45:57;;;;;;;18.50;15.00;;;10.20;99.90;;;;;;4898150;29;20183;-30
2022/05/01 00:48:23;;;;;;;16.47;13.50;;;10.20;99.90;;;;;;4915004;29;20207;-31
2022/05/01 00:50:51;;;;;;;15.20;13.10;;;10.20;99.90;;;;;;4913705;29;20187;-29
2022/05/01 00:53:17;;;;;;;17.37;13.17;;;10.20;99.90;;;;;;4914131;29;20189;-30
2022/05/01 00:55:43;;;;;;;14.50;12.90;;;10.20;99.90;;;;;;4913923;29;20179;-30
2022/05/01 00:58:09;;;;;;;15.23;13.23;;;10.20;99.90;;;;;;4929296;29;20218;-30
2022/05/01 01:00:35;;;;;;;14.67;13.17;;;10.10;99.90;;;;;;4913536;29;20197;-30
2022/05/01 01:03:02;;;;;;;14.40;12.63;;;10.10;99.90;;;;;;4929664;29;20186;-29
2022/05/01 01:05:28;;;;;;;17.27;13.33;;;10.10;99.90;;;;;;4913951;29;20190;-29
2022/05/01 01:07:54;;;;;;;16.10;13.40;;;10.10;99.90;;;;;;4929504;29;20228;-29
2022/05/01 01:10:20;;;;;;;14.77;13.17;;;10.10;99.90;;;;;;4897842;29;20277;-30
2022/05/01 01:12:53;;;;;;;14.43;12.43;;;10.00;99.90;;;;;;4914968;29;20210;-30
2022/05/01 01:15:20;;;;;;;15.17;12.47;;;10.00;99.90;;;;;;4913399;29;20209;-29
2022/05/01 01:17:47;;;;;;;13.10;11.43;;;9.90;99.90;;;;;;4913478;29;20210;-29
2022/05/01 01:20:15;;;;;;;14.83;13.23;;;10.00;99.90;;;;;;4913273;29;20183;-30
2022/05/01 01:22:48;;;;;;;15.17;12.10;;;10.00;99.90;;;;;;4929241;29;20193;-29
2022/05/01 01:25:17;;;;;;;14.83;13.30;;;10.00;99.90;;;;;;4913665;29;20194;-29
2022/05/01 01:27:43;;;;;;;15.73;12.20;;;10.00;99.90;;;;;;4913339;29;20199;-30
2022/05/01 01:32:55;;;;;;;13.93;12.13;;;9.90;99.90;;;;;;4915155;29;20233;-30
2022/05/01 01:35:26;;;;;;;15.40;12.70;;;9.80;99.90;;;;;;4897670;29;20224;-30
2022/05/01 01:37:56;;;;;;;15.23;12.40;;;9.80;99.90;;;;;;4913655;29;20301;-29
2022/05/01 01:40:27;;;;;;;14.57;12.53;;;9.70;99.90;;;;;;4912908;29;20190;-30
2022/05/01 01:42:55;;;;;;;15.13;13.27;;;9.70;99.90;;;;;;4913322;29;20186;-29
2022/05/01 01:45:21;;;;;;;14.17;12.67;;;9.70;99.90;;;;;;4913407;29;20193;-32
2022/05/01 01:47:49;;;;;;;16.30;13.83;;;9.70;99.90;;;;;;4913325;29;20202;-30
2022/05/01 01:50:18;;;;;;;18.07;13.73;;;9.70;99.90;;;;;;4913051;29;20322;-30
2022/05/01 01:52:49;;;;;;;16.33;13.77;;;9.70;99.90;;;;;;4913201;29;20194;-29
2022/05/01 01:55:19;;;;;;;16.93;13.13;;;9.60;99.90;;;;;;4913340;29;20190;-29
2022/05/01 01:57:45;;;;;;;14.53;13.00;;;9.60;99.90;;;;;;4897460;29;20305;-29
2022/05/01 02:00:12;;;;;;;14.97;13.37;;;9.60;99.90;;;;;;4913123;29;20247;-29
2022/05/01 02:02:38;;;;;;;16.00;13.47;;;9.60;99.90;;;;;;4913377;29;20191;-29
2022/05/01 02:05:06;;;;;;;15.03;13.40;;;9.70;99.90;;;;;;4914502;29;20222;-29
2022/05/01 02:07:32;;;;;;;14.60;12.93;;;9.60;99.90;;;;;;4912853;29;20206;-30
2022/05/01 02:09:58;;;;;;;16.93;13.47;;;9.60;99.90;;;;;;4912707;29;20210;-29
2022/05/01 02:12:24;;;;;;;15.00;13.40;;;9.60;99.90;;;;;;4913293;29;20246;-29
2022/05/01 02:14:49;;;;;;;15.63;13.90;;;9.50;99.90;;;;;;4913119;29;20174;-30
2022/05/01 02:17:15;;;;;;;14.27;12.77;;;9.40;99.90;;;;;;4912971;29;20199;-30
2022/05/01 02:19:42;;;;;;;15.63;13.07;;;9.50;99.90;;;;;;4912836;29;20190;-31
2022/05/01 02:22:08;;;;;;;15.80;13.20;;;9.50;99.90;;;;;;4912857;29;20187;-29
2022/05/01 02:24:34;;;;;;;14.00;12.47;;;9.50;99.90;;;;;;4916445;29;20198;-29
2022/05/01 02:27:00;;;;;;;15.93;13.23;;;9.60;99.90;;;;;;4900931;29;20274;-29
2022/05/01 02:29:27;;;;;;;15.30;13.07;;;9.50;99.90;;;;;;4900532;29;20246;-29
2022/05/01 02:31:53;;;;;;;14.73;13.00;;;9.60;99.90;;;;;;4917721;29;20242;-29
2022/05/01 02:34:22;;;;;;;15.03;13.43;;;9.50;99.90;;;;;;4916515;29;20230;-29
2022/05/01 02:36:49;;;;;;;14.73;12.73;;;9.50;99.90;;;;;;4916326;29;20203;-29
2022/05/01 02:39:14;;;;;;;14.40;12.90;;;9.60;99.90;;;;;;4916180;29;20187;-29
2022/05/01 02:41:40;;;;;;;16.40;13.43;;;9.60;99.90;;;;;;4932055;29;20178;-29
2022/05/01 02:44:07;;;;;;;14.97;12.97;;;9.60;99.90;;;;;;4916261;29;20261;-29
2022/05/01 02:46:33;;;;;;;16.77;13.20;;;9.60;99.90;;;;;;4916089;29;20198;-30
2022/05/01 02:48:58;;;;;;;15.70;13.50;;;9.60;99.90;;;;;;4915833;29;20206;-30
2022/05/01 02:51:25;;;;;;;14.67;12.97;;;9.60;99.90;;;;;;4915880;29;20178;-30
2022/05/01 02:53:50;;;;;;;17.93;14.30;;;9.60;99.90;;;;;;4916216;29;20238;-30
2022/05/01 02:56:16;;;;;;;14.70;13.03;;;9.50;99.90;;;;;;4916151;29;20183;-30
2022/05/01 02:58:42;;;;;;;17.27;14.37;;;9.50;99.90;;;;;;4915619;29;20214;-30
2022/05/01 03:01:10;;;;;;;17.53;13.63;;;9.50;99.90;;;;;;4915760;29;20190;-30
2022/05/01 03:03:36;;;;;;;15.40;13.73;;;9.50;99.90;;;;;;4915604;29;20182;-30
2022/05/01 03:06:02;;;;;;;17.00;13.83;;;9.50;99.90;;;;;;4931438;29;20182;-29
2022/05/01 03:08:28;;;;;;;16.40;14.13;;;9.50;99.90;;;;;;4915760;29;20207;-29
2022/05/01 03:10:54;;;;;;;15.83;12.87;;;9.50;99.90;;;;;;4931329;29;20182;-30
2022/05/01 03:13:20;;;;;;;15.33;12.57;;;9.40;99.90;;;;;;4915619;29;20186;-29
2022/05/01 03:15:46;;;;;;;16.83;13.57;;;9.40;99.90;;;;;;4915665;29;20201;-30
2022/05/01 03:23:41;;;;;;;17.57;13.97;;;9.30;99.90;;;;;;4916898;29;20182;-29
2022/05/01 03:26:07;;;;;;;15.93;14.03;;;9.30;99.90;;;;;;4916680;29;20171;-29
2022/05/01 03:28:33;;;;;;;17.23;14.87;;;9.20;99.90;;;;;;4915178;29;20203;-30
2022/05/01 03:30:58;;;;;;;16.50;14.13;;;9.10;99.90;;;;;;4930809;29;20185;-29
2022/05/01 03:33:25;;;;;;;17.10;13.90;;;9.00;99.90;;;;;;4930897;29;20242;-29
2022/05/01 03:35:51;;;;;;;16.60;14.37;;;9.00;99.90;;;;;;4914795;29;20265;-30
2022/05/01 03:38:17;;;;;;;17.07;14.60;;;9.00;99.90;;;;;;4915245;29;20206;-29
2022/05/01 03:40:47;;;;;;;17.00;13.73;;;9.00;99.90;;;;;;4914913;29;20235;-30
2022/05/01 03:43:16;;;;;;;16.47;13.90;;;9.00;99.90;;;;;;4916155;29;20186;-30
2022/05/01 03:45:42;;;;;;;17.23;13.50;;;9.00;99.90;;;;;;4914998;29;20194;-29
2022/05/01 03:48:09;;;;;;;16.50;14.00;;;9.00;99.90;;;;;;4915202;29;20257;-30
2022/05/01 03:50:35;;;;;;;18.87;13.50;;;9.00;99.90;;;;;;4914752;29;20296;-30
2022/05/01 03:53:04;;;;;;;16.43;14.17;;;9.00;99.90;;;;;;4914803;29;20211;-30
2022/05/01 03:55:33;;;;;;;15.43;12.77;;;9.00;99.90;;;;;;4930715;29;20182;-29
2022/05/01 03:58:00;;;;;;;16.53;14.37;;;9.00;99.90;;;;;;4915173;29;20249;-30
2022/05/01 04:00:27;;;;;;;16.03;12.73;;;9.00;99.90;;;;;;4914569;29;20571;-30
2022/05/01 04:02:53;;;;;;;15.30;13.60;;;9.00;99.90;;;;;;4930923;29;20636;-30
2022/05/01 04:05:19;;;;;;;16.73;13.00;;;9.00;99.90;;;;;;4899184;29;20280;-30
2022/05/01 04:07:45;;;;;;;14.40;12.90;;;9.00;99.90;;;;;;4914852;29;20285;-30
2022/05/01 04:10:12;;;;;;;15.20;13.17;;;9.00;99.90;;;;;;4914320;29;20217;-30
2022/05/01 04:12:43;;;;;;;16.13;13.37;;;9.00;99.90;;;;;;4914380;29;20274;-30
2022/05/01 04:15:11;;;;;;;17.30;13.77;;;9.00;99.90;;;;;;4930623;29;20181;-30
2022/05/01 04:17:41;;;;;;;15.67;13.00;;;9.00;99.90;;;;;;4898782;29;20221;-30
2022/05/01 04:20:13;;;;;;;14.10;12.60;;;9.00;99.90;;;;;;4914217;29;20197;-30
2022/05/01 04:22:47;;;;;;;15.27;13.17;;;9.00;99.90;;;;;;4914292;29;20190;-30
2022/05/01 04:25:16;;;;;;;15.43;13.60;;;9.00;99.90;;;;;;4914333;29;20222;-30
2022/05/01 04:27:43;;;;;;;14.83;12.87;;;9.00;99.90;;;;;;4914369;29;20206;-31
2022/05/01 04:30:12;;;;;;;17.50;13.03;;;9.00;99.90;;;;;;4913902;29;20222;-30
2022/05/01 04:32:53;;;;;;;15.27;12.60;;;9.00;99.90;;;;;;4914189;29;20247;-30
2022/05/01 04:35:20;;;;;;;15.43;12.97;;;9.10;99.90;;;;;;4915265;29;20186;-30
2022/05/01 04:37:46;;;;;;;16.37;13.07;;;9.00;99.90;;;;;;4930020;29;20210;-30
2022/05/01 04:40:12;;;;;;;16.23;12.77;;;9.00;99.90;;;;;;4913986;29;20178;-30
2022/05/01 04:42:37;;;;;;;15.13;12.07;;;9.00;99.90;;;;;;4914016;29;20194;-30
2022/05/01 04:45:04;;;;;;;15.23;13.47;;;9.00;99.90;;;;;;4913938;29;20190;-30
2022/05/01 04:47:29;;;;;;;14.97;12.43;;;9.00;99.90;;;;;;4913877;29;20221;-30
2022/05/01 04:49:55;;;;;;;16.53;12.70;;;9.00;99.90;;;;;;4913381;29;20206;-30
2022/05/01 04:52:21;;;;;;;18.13;13.83;;;9.00;99.90;;;;;;4914200;29;20217;-30
2022/05/01 04:54:47;;;;;;;15.80;13.67;;;9.00;99.90;;;;;;4914069;29;20179;-30
2022/05/01 04:57:15;;;;;;;14.13;12.03;;;9.00;99.90;;;;;;4914021;29;20273;-30
2022/05/01 04:59:41;;;;;;;14.60;12.60;;;9.00;99.90;;;;;;4929625;29;20194;-30
2022/05/01 05:02:07;;;;;;;15.37;12.97;;;9.00;99.90;;;;;;4913891;29;20187;-30
2022/05/01 05:04:32;;;;;;;14.70;12.63;;;9.00;99.90;;;;;;4929214;29;20278;-30
2022/05/01 05:06:59;;;;;;;17.03;12.93;;;9.00;99.90;;;;;;4913470;29;20206;-30
2022/05/01 05:12:09;;;;;;;15.07;12.30;;;8.90;99.90;;;;;;4914951;29;20175;-30
2022/05/01 05:14:36;;;;;;;16.57;12.53;;;9.00;99.90;;;;;;4913781;29;20183;-30
2022/05/01 05:17:06;;;;;;;14.83;13.20;;;9.00;99.90;;;;;;4913480;29;20245;-30
2022/05/01 05:19:33;;;;;;;15.77;13.40;;;8.90;99.90;;;;;;4913651;29;20178;-30
2022/05/01 05:21:59;;;;;;;16.13;13.20;;;8.90;99.90;;;;;;4913770;29;20209;-30
2022/05/01 05:24:24;;;;;;;16.20;13.67;;;8.80;99.90;;;;;;4913629;29;20250;-31
2022/05/01 05:26:50;;;;;;;19.50;15.90;;;8.90;99.90;;;;;;4914707;29;20655;-30
2022/05/01 05:29:16;;;;;;;17.83;14.90;;;8.80;99.90;;;;;;4929278;29;20214;-30
2022/05/01 05:31:42;;;;;;;16.03;14.00;;;8.80;99.90;;;;;;4911572;29;20178;-30
2022/05/01 05:34:08;;;;;;;17.77;15.03;;;8.80;99.90;;;;;;4914629;29;20420;-30
2022/05/01 05:36:34;;;;;;;17.83;13.07;;;8.80;99.90;;;;;;4913415;29;20253;-29
2022/05/01 05:38:59;;;;;;;14.47;12.93;;;8.80;99.90;;;;;;4913351;29;20186;-31
2022/05/01 05:41:25;;;;;;;14.83;12.83;;;8.80;99.90;;;;;;4913055;29;20182;-31
2022/05/01 05:43:51;;;;;;;15.17;13.47;;;8.80;99.90;;;;;;4913419;29;20253;-30
2022/05/01 05:46:17;;;;;;;15.17;13.20;;;8.90;99.90;;;;;;4913031;29;20200;-30
2022/05/01 05:48:43;;;;;;;16.27;13.37;;;9.00;99.90;;;;;;4912978;29;20202;-30
2022/05/01 05:51:09;;;;;;;18.37;13.83;;;9.00;99.90;;;;;;4913319;29;20179;-31
2022/05/01 05:53:35;;;;;;;15.87;14.17;;;9.00;99.90;;;;;;4896645;29;20217;-30
2022/05/01 05:56:00;;;;;;;16.83;13.63;;;9.00;99.90;;;;;;4928983;29;20216;-30
2022/05/01 05:58:26;;;;;;;16.80;13.57;;;9.10;99.90;;;;;;4930642;29;20260;-30
2022/05/01 06:00:52;;;;;;;15.43;13.33;;;9.20;99.90;;;;;;4917763;29;20195;-31
2022/05/01 06:03:19;;;;;;;17.50;14.57;;;9.20;99.90;;;;;;4932885;29;20190;-30
2022/05/01 06:05:46;;;;;;;17.23;15.00;;;9.20;99.90;;;;;;4917343;29;20273;-30
2022/05/01 06:08:12;;;;;;;16.50;14.70;;;9.30;99.90;;;;;;4916866;29;20206;-30
2022/05/01 06:10:38;;;;;;;19.33;14.67;;;9.30;99.90;;;;;;4916463;29;20382;-30
2022/05/01 06:13:04;;;;;;;16.07;13.50;;;9.40;99.90;;;;;;4916735;29;20174;-30
2022/05/01 06:15:31;;;;;;;17.73;14.83;;;9.50;99.90;;;;;;4916511;29;20186;-31
2022/05/01 06:17:56;;;;;;;15.93;14.13;;;9.50;99.90;;;;;;4916537;29;20203;-31
2022/05/01 06:20:22;;;;;;;15.50;12.97;;;9.50;99.90;;;;;;4900853;29;20249;-30
2022/05/01 06:22:51;;;;;;;18.30;13.63;;;9.60;99.90;;;;;;4916858;29;20190;-30
2022/05/01 06:25:17;;;;;;;16.73;14.30;;;9.60;99.90;;;;;;4916438;29;20648;-31
2022/05/01 06:27:43;;;;;;;18.13;14.97;;;9.60;99.90;;;;;;4932180;29;20207;-30
2022/05/01 06:30:12;;;;;;;17.30;14.23;;;9.60;99.90;;;;;;4915891;29;20214;-30
2022/05/01 06:32:43;;;;;;;16.27;13.73;;;9.70;99.90;;;;;;4906270;29;20187;-31
2022/05/01 06:35:10;;;;;;;16.17;14.33;;;9.70;99.90;;;;;;4889340;29;20191;-31
2022/05/01 06:37:37;;;;;;;16.70;13.30;;;9.70;99.90;;;;;;4897315;29;20203;-30
2022/05/01 06:40:05;;;;;;;15.07;13.40;;;9.80;99.90;;;;;;4881850;29;20187;-31
2022/05/01 06:42:33;;;;;;;16.03;13.23;;;9.80;99.90;;;;;;4898181;29;20182;-30
2022/05/01 06:44:59;;;;;;;19.03;16.37;;;9.90;99.90;;;;;;4897215;29;20195;-30
2022/05/01 06:47:26;;;;;;;16.60;14.70;;;9.90;99.90;;;;;;4898565;29;20313;-30
2022/05/01 06:49:52;;;;;;;14.63;13.03;;;9.90;99.90;;;;;;4912769;29;20275;-30
2022/05/01 06:52:23;;;;;;;15.07;13.00;;;9.90;99.90;;;;;;4912950;29;20217;-31
2022/05/01 06:54:53;;;;;;;15.80;13.77;;;10.00;99.90;;;;;;4898295;29;20191;-30
2022/05/01 06:57:19;;;;;;;15.60;13.50;;;10.00;99.90;;;;;;4896783;29;20478;-30
2022/05/01 06:59:45;;;;;;;16.53;14.33;;;10.00;99.90;;;;;;4886500;29;20197;-30
2022/05/01 07:02:11;;;;;;;14.60;12.93;;;9.90;99.90;;;;;;4915715;29;20640;-30
2022/05/01 07:04:37;;;;;;;15.07;13.23;;;10.00;99.90;;;;;;4915917;29;20179;-30
2022/05/01 07:07:03;;;;;;;17.47;13.73;;;10.00;99.90;;;;;;4900197;29;20207;-30
2022/05/01 07:09:31;;;;;;;15.93;13.50;;;10.00;99.90;;;;;;4916870;29;20213;-30
2022/05/01 07:11:57;;;;;;;16.63;13.53;;;10.10;99.90;;;;;;4899754;29;20182;-30
2022/05/01 07:14:24;;;;;;;15.40;13.17;;;10.10;99.90;;;;;;4915714;29;20183;-30
2022/05/01 07:16:51;;;;;;;15.13;13.53;;;10.20;99.90;;;;;;4899877;29;20229;-30
2022/05/01 07:19:17;;;;;;;16.53;14.17;;;10.20;99.90;;;;;;4914975;29;20209;-30
2022/05/01 07:21:43;;;;;;;15.50;13.30;;;10.10;99.90;;;;;;4915574;29;20602;-30
2022/05/01 07:24:11;;;;;;;15.37;13.33;;;10.20;99.90;;;;;;4915146;29;20219;-30
2022/05/01 07:26:37;;;;;;;15.63;13.23;;;10.10;99.90;;;;;;4915737;29;20210;-30
2022/05/01 07:29:04;;;;;;;14.20;12.57;;;10.20;99.90;;;;;;4915243;29;20215;-30
2022/05/01 07:31:31;;;;;;;15.03;12.80;;;10.20;99.90;;;;;;4910182;29;20206;-30
2022/05/01 07:33:58;;;;;;;17.43;12.90;;;10.30;99.90;;;;;;4920543;29;20175;-30
2022/05/01 07:36:24;;;;;;;16.83;14.20;;;10.30;99.90;;;;;;4890571;29;20186;-30
2022/05/01 07:38:50;;;;;;;18.30;14.03;;;10.30;99.90;;;;;;4907724;29;20198;-30
2022/05/01 07:41:18;;;;;;;19.50;14.40;;;10.30;99.90;;;;;;4903966;29;20652;-30
2022/05/01 07:43:45;;;;;;;18.37;13.87;;;10.40;99.90;;;;;;4921710;29;20186;-31
2022/05/01 07:46:11;;;;;;;17.50;14.40;;;10.40;99.90;;;;;;4906252;29;20209;-31
2022/05/01 07:48:37;;;;;;;17.63;14.17;;;10.40;99.90;;;;;;4903386;29;20246;-30
2022/05/01 07:51:03;;;;;;;16.80;13.00;;;10.40;99.90;;;;;;4904639;29;20218;-30
2022/05/01 07:53:30;;;;;;;16.33;13.33;;;10.50;99.90;;;;;;4917402;29;20226;-31
2022/05/01 07:55:58;;;;;;;15.90;13.80;;;10.50;99.90;;;;;;4904672;29;20197;-30
2022/05/01 07:58:28;;;;;;;14.90;12.90;;;10.50;99.90;;;;;;4918635;29;20301;-30
2022/05/01 08:00:55;;;;;;;18.93;14.33;;;10.60;99.90;;;;;;4918496;29;20289;-31
2022/05/01 08:06:08;;;;;;;16.67;13.53;;;10.70;99.90;;;;;;4934815;29;20217;-30
2022/05/01 08:08:36;;;;;;;17.37;13.90;;;10.80;99.90;;;;;;4936831;29;20301;-30
2022/05/01 08:11:03;;;;;;;17.60;13.97;;;10.90;99.90;;;;;;4916854;29;20219;-30
2022/05/01 08:13:29;;;;;;;17.47;14.00;;;10.80;99.90;;;;;;4907238;29;20190;-31
2022/05/01 08:15:55;;;;;;;16.47;13.63;;;10.90;99.90;;;;;;4935338;29;20189;-31
2022/05/01 08:21:10;;;;;;;19.60;14.97;;;11.00;99.90;;;;;;4920410;29;20189;-30
2022/05/01 08:23:43;;;;;;;18.63;14.13;;;11.00;99.90;;;;;;4921497;29;20186;-30
2022/05/01 08:26:13;;;;;;;16.33;13.80;;;11.00;99.90;;;;;;4904757;29;20186;-30
2022/05/01 08:28:41;;;;;;;17.43;13.57;;;11.10;99.90;;;;;;4920783;29;20206;-31
2022/05/01 08:31:08;;;;;;;17.00;14.57;;;11.20;99.90;;;;;;4930321;29;21206;-30
2022/05/01 08:33:35;;;;;;;17.67;14.47;;;11.30;99.90;;;;;;4935074;29;20189;-31
2022/05/01 08:36:04;;;;;;;16.83;13.70;;;11.20;99.90;;;;;;4920077;29;20174;-31
2022/05/01 08:38:31;;;;;;;17.27;13.50;;;11.10;99.90;;;;;;4937152;29;20217;-30
2022/05/01 08:40:57;;;;;;;17.10;13.43;;;11.20;99.90;;;;;;4922316;29;20198;-30
2022/05/01 08:43:24;;;;;;;16.23;13.53;;;11.30;99.90;;;;;;4921986;29;20187;-30
2022/05/01 08:45:53;;;;;;;18.57;14.07;;;11.30;99.90;;;;;;4921786;29;20189;-31
2022/05/01 08:48:29;;;;;;;15.77;13.30;;;11.40;99.90;;;;;;4920502;29;20206;-30
2022/05/01 08:50:56;;;;;;;15.90;13.53;;;11.40;99.90;;;;;;4922244;29;20232;-30
2022/05/01 08:53:23;;;;;;;15.50;12.93;;;11.50;99.90;;;;;;4918561;29;20225;-30
2022/05/01 08:55:50;;;;;;;16.87;13.60;;;11.50;99.90;;;;;;4930907;29;20187;-30
2022/05/01 08:58:17;;;;;;;17.53;13.30;;;11.70;99.90;;;;;;4903640;29;20246;-31
2022/05/01 09:00:44;;;;;;;17.70;13.93;;;11.70;99.90;;;;;;4930930;29;20191;-30
2022/05/01 09:03:10;;;;;;;18.90;13.87;;;11.80;99.90;;;;;;4904669;29;20193;-30
2022/05/01 09:05:36;;;;;;;15.47;11.90;;;11.60;99.90;;;;;;4928022;29;20312;-31
2022/05/01 09:08:02;;;;;;;15.10;12.80;;;11.60;99.90;;;;;;4913307;29;20217;-30
2022/05/01 09:10:31;;;;;;;16.53;11.93;;;11.60;99.90;;;;;;4926082;29;20213;-31
2022/05/01 09:12:57;;;;;;;15.83;12.70;;;11.60;99.90;;;;;;4922898;29;20202;-31
2022/05/01 09:15:28;;;;;;;15.87;12.97;;;11.50;99.90;;;;;;4924348;29;20194;-31
2022/05/01 09:18:05;;;;;;;16.33;13.73;;;11.50;99.90;;;;;;4935550;28;20671;-30
2022/05/01 09:20:32;;;;;;;14.47;11.93;;;11.70;99.90;;;;;;4935719;29;20214;-31
2022/05/01 09:22:59;;;;;;;16.30;12.97;;;11.80;99.90;;;;;;4906988;29;20193;-31
2022/05/01 09:25:29;;;;;;;16.67;13.83;;;12.00;99.90;;;;;;4918851;29;20192;-30
2022/05/01 09:28:02;;;;;;;15.93;13.07;;;12.30;99.90;;;;;;4924312;29;20672;-31
2022/05/01 09:30:33;;;;;;;17.33;13.43;;;12.50;99.90;;;;;;4921025;29;20220;-31
2022/05/01 09:33:01;;;;;;;17.77;13.07;;;12.50;99.90;;;;;;4923299;29;20199;-31
2022/05/01 09:35:33;;;;;;;18.17;13.93;;;12.50;99.90;;;;;;4940398;29;20230;-32
2022/05/01 09:38:17;;;;;;;17.60;13.47;;;12.60;99.90;;;;;;4939852;29;20202;-31
2022/05/01 09:40:48;;;;;;;14.80;12.63;;;12.40;99.90;;;;;;4923525;29;20195;-31
2022/05/01 09:43:36;;;;;;;16.50;12.90;;;12.40;99.90;;;;;;4923164;29;20294;-31
2022/05/01 09:46:25;;;;;;;15.67;13.17;;;12.40;99.90;;;;;;4909603;29;20208;-31
2022/05/01 09:49:03;;;;;;;14.93;12.93;;;12.60;99.90;;;;;;4937210;29;20184;-31
2022/05/01 09:51:34;;;;;;;14.07;11.90;;;12.50;99.90;;;;;;4939698;29;20201;-31
2022/05/01 09:54:02;;;;;;;15.27;12.43;;;12.80;99.90;;;;;;4924372;29;20211;-31
2022/05/01 09:56:41;;;;;;;13.97;11.27;;;13.00;99.90;;;;;;4923645;29;20184;-31
2022/05/01 09:59:07;;;;;;;13.67;11.10;;;13.10;99.90;;;;;;4924528;29;20686;-30
2022/05/01 10:01:33;;;;;;;14.70;11.70;;;13.20;99.90;;;;;;4925340;29;20194;-30
2022/05/01 10:04:01;;;;;;;12.07;10.60;;;13.20;99.90;;;;;;4928133;29;20199;-29
2022/05/01 10:06:31;;;;;;;13.43;11.10;;;13.30;99.90;;;;;;4923221;29;20201;-30
2022/05/01 10:08:57;;;;;;;12.80;11.30;;;13.50;99.90;;;;;;4941812;29;20277;-30
2022/05/01 10:11:24;;;;;;;12.97;10.80;;;13.50;99.90;;;;;;4926105;29;20277;-30
2022/05/01 10:13:50;;;;;;;13.80;10.83;;;13.40;99.90;;;;;;4923603;29;20192;-30
2022/05/01 10:16:16;;;;;;;14.40;11.57;;;13.30;99.90;;;;;;4923494;29;20192;-30
2022/05/01 10:18:47;;;;;;;12.57;10.13;;;13.00;99.90;;;;;;4924753;29;20206;-30
2022/05/01 10:21:13;;;;;;;12.80;9.93;;;12.90;99.90;;;;;;4925197;29;20223;-31
2022/05/01 10:23:40;;;;;;;11.47;10.23;;;13.10;99.90;;;;;;4922794;29;20209;-30
2022/05/01 10:26:10;;;;;;;13.23;11.27;;;13.20;99.90;;;;;;4938981;28;20185;-30
2022/05/01 10:28:54;;;;;;;12.37;10.63;;;13.50;99.90;;;;;;4924731;29;20224;-31
2022/05/01 10:34:57;;;;;;;11.93;10.27;;;14.00;99.90;;;;;;4925001;29;20243;-30
2022/05/01 10:37:55;;;;;;;13.83;11.77;;;13.90;99.90;;;;;;4922770;29;20283;-31
2022/05/01 10:40:22;;;;;;;11.40;9.90;;;13.60;99.90;;;;;;4931901;29;20202;-31
2022/05/01 10:42:52;;;;;;;10.13;9.03;;;13.70;99.90;;;;;;4924033;29;20178;-31
2022/05/01 10:45:24;;;;;;;11.17;9.77;;;13.80;99.90;;;;;;4923212;29;20179;-30
2022/05/01 10:47:52;;;;;;;12.67;10.43;;;14.30;99.90;;;;;;4918878;29;20206;-30
2022/05/01 10:50:27;;;;;;;10.30;9.20;;;14.50;99.90;;;;;;4926942;29;20233;-30
2022/05/01 10:53:11;;;;;;;10.50;8.63;;;14.60;99.90;;;;;;4922534;29;20189;-31
2022/05/01 10:56:20;;;;;;;11.77;9.20;;;14.90;99.90;;;;;;4910754;29;20189;-31
2022/05/01 10:58:46;;;;;;;10.00;9.00;;;15.00;99.90;;;;;;4905492;29;20229;-31
2022/05/01 11:01:13;;;;;;;10.10;9.03;;;15.10;99.90;;;;;;4925461;29;20217;-30
2022/05/01 11:03:51;;;;;;;11.83;9.53;;;15.00;99.90;;;;;;4922820;29;20194;-31
2022/05/01 11:06:20;;;;;;;9.33;8.10;;;14.90;99.90;;;;;;4941659;29;20209;-30
2022/05/01 11:08:47;;;;;;;8.57;7.67;;;14.90;99.90;;;;;;4917894;29;20319;-30
2022/05/01 11:11:13;;;;;;;9.43;8.47;;;15.20;99.90;;;;;;4931926;29;20187;-31
2022/05/01 11:13:41;;;;;;;8.53;7.63;;;15.30;99.90;;;;;;4921749;29;20325;-30
2022/05/01 11:16:08;;;;;;;7.60;6.73;;;15.60;99.90;;;;;;4925555;29;20197;-31
2022/05/01 11:18:51;;;;;;;9.23;7.83;;;15.80;99.90;;;;;;4929086;29;20236;-31
2022/05/01 11:21:20;;;;;;;8.50;7.60;;;16.00;99.90;;;;;;4918588;29;20230;-31
2022/05/01 11:23:58;;;;;;;11.03;8.43;;;16.10;99.90;;;;;;4917768;29;20232;-31
2022/05/01 11:26:24;;;;;;;8.73;7.63;;;15.90;99.90;;;;;;4930893;29;20189;-31
2022/05/01 11:28:55;;;;;;;8.50;6.83;;;15.70;99.90;;;;;;4919037;29;20177;-31
2022/05/01 11:31:36;;;;;;;8.97;6.10;;;15.90;99.90;;;;;;4915337;29;20215;-31
2022/05/01 11:34:19;;;;;;;7.93;6.83;;;16.00;99.90;;;;;;4924730;29;20647;-30
2022/05/01 11:36:58;;;;;;;8.33;7.43;;;16.00;99.90;;;;;;4920863;29;20206;-29
2022/05/01 11:39:45;;;;;;;10.27;7.60;;;16.20;99.90;;;;;;4937521;29;20185;-30
2022/05/01 11:42:29;;;;;;;8.47;7.47;;;16.10;99.90;;;;;;4927210;29;20175;-30
2022/05/01 11:45:00;;;;;;;9.30;7.50;;;16.00;99.90;;;;;;4929471;29;20189;-31
2022/05/01 11:47:28;;;;;;;7.80;7.00;;;15.90;99.90;;;;;;4929039;29;20635;-33
2022/05/01 11:49:54;;;;;;;8.17;7.20;;;15.80;99.90;;;;;;4920939;29;20297;-31
2022/05/01 11:52:22;;;;;;;8.00;6.67;;;15.40;99.90;;;;;;4930828;29;20189;-31
2022/05/01 11:54:52;;;;;;;8.93;7.20;;;15.40;99.90;;;;;;4915666;29;20251;-31
2022/05/01 12:03:05;;;;;;;9.73;7.50;;;15.60;99.90;;;;;;4918602;29;20183;-31
2022/05/01 12:05:32;;;;;;;9.67;7.23;;;15.50;99.90;;;;;;4907902;29;20273;-30
2022/05/01 12:07:59;;;;;;;8.10;7.20;;;15.10;99.90;;;;;;4905852;29;20206;-31
2022/05/01 12:10:31;;;;;;;8.13;6.83;;;15.10;99.90;;;;;;4915062;29;20210;-31
2022/05/01 12:12:56;;;;;;;6.83;5.90;;;15.30;99.90;;;;;;4917671;29;20182;-30
2022/05/01 12:15:22;;;;;;;8.57;6.60;;;15.60;99.90;;;;;;4913697;29;20254;-30
2022/05/01 12:17:48;;;;;;;8.87;7.47;;;15.60;99.90;;;;;;4908434;29;20209;-32
2022/05/01 12:20:14;;;;;;;7.30;6.53;;;15.40;99.90;;;;;;4909278;29;20237;-31
2022/05/01 12:22:40;;;;;;;6.83;6.13;;;15.40;99.90;;;;;;4928098;29;20290;-31
2022/05/01 12:25:10;;;;;;;7.17;5.80;;;15.60;99.90;;;;;;4907268;29;20190;-31
2022/05/01 12:27:40;;;;;;;7.87;6.93;;;15.80;99.90;;;;;;4907458;29;20202;-31
2022/05/01 12:30:08;;;;;;;7.23;6.40;;;15.90;99.90;;;;;;4913543;29;20213;-30
2022/05/01 12:32:37;;;;;;;7.20;6.50;;;16.10;99.90;;;;;;4924866;29;20177;-31
2022/05/01 12:35:08;;;;;;;6.47;5.83;;;16.20;99.90;;;;;;4905797;29;20255;-32
2022/05/01 12:37:37;;;;;;;7.83;6.27;;;16.20;99.90;;;;;;4906357;29;20203;-31
2022/05/01 12:40:09;;;;;;;7.03;6.27;;;16.00;99.90;;;;;;4905611;29;20238;-31
2022/05/01 12:45:40;;;;;;;8.07;5.90;;;15.90;99.90;;;;;;4903854;29;20186;-31
2022/05/01 12:48:08;;;;;;;6.83;6.13;;;16.30;99.90;;;;;;4920221;29;20292;-31
2022/05/01 12:50:38;;;;;;;6.83;6.17;;;17.00;99.90;;;;;;4910573;29;20676;-31
2022/05/01 12:53:25;;;;;;;7.78;6.15;;;17.40;99.90;;;;;;4912313;29;20187;-31
2022/05/01 12:55:53;;;;;;;6.05;5.45;;;17.20;99.90;;;;;;4898036;29;20190;-30
2022/05/01 12:58:30;;;;;;;8.18;7.00;;;17.30;99.90;;;;;;4909944;29;20210;-31
2022/05/01 13:00:56;;;;;;;7.07;6.20;;;17.20;99.90;;;;;;4909675;29;20655;-31
2022/05/01 13:03:36;;;;;;;6.50;5.90;;;17.30;99.90;;;;;;4913989;29;20190;-31
2022/05/01 13:06:12;;;;;;;6.53;5.90;;;17.70;99.90;;;;;;4913524;29;20190;-30
2022/05/01 13:08:42;;;;;;;5.97;5.38;;;17.80;99.90;;;;;;4913827;29;20202;-31
2022/05/01 13:11:15;;;;;;;6.57;5.72;;;17.90;99.90;;;;;;4931532;29;20253;-31
2022/05/01 13:13:52;;;;;;;5.40;4.90;;;18.00;99.90;;;;;;4932424;29;20188;-31
2022/05/01 13:16:30;;;;;;;6.13;5.53;;;18.30;99.90;;;;;;4933503;29;20174;-32